Portada
METAR-TAF:

METAR-TAF

Aeroports :

Lord Howe Island, Austràlia

latitud: 31-32-18S, longitud: 159-04-38E, altitud: 5 m

Observació

L'informe es va fer fa 43 minuts, a les 16:30 UTC
Vent 9 kt del Sud-Oest
Temperatura 20°C
Humitat 60%
Pressió 1017 hPa
Visibilitat 10 km o més

METAR: YLHI 131630Z AUTO 23009KT 9999 // NCD 20/12 Q1017 RF00.0/000.0

Hora: 03:13 (17:13 UTC)

Pronòstic

L'informe es va fer fa 5 hores i 54 minuts, a les 11:19 UTC
Pronòstic vàlid del 13 a les 12 UTC al 14 a les 12 UTC
Vent 10 kt del Sud-Oest
Visibilitat 10 km o més
Núvols disperses a una alçada de 4000 ft
A partir de les 14 a les 0500 UTC
Vent 8 kt del Oest
Visibilitat 10 km o més
Núvols disperses a una alçada de 4000 ft
A partir de les 14 a les 0900 UTC
Vent 8 kt del Nord-Oest
Visibilitat 10 km o més
Núvols disperses a una alçada de 4000 ft

TAF: YLHI 131119Z 1312/1412 22010KT 9999 SCT040 FM140500 27008KT 9999 SCT040 FM140900 31008KT 9999 SCT040

Observacions i pronòstics meteorològics de més de 4000 aeroports (METAR i TAF).

Les estacions disponibles són els punts grocs i vermells al mapa.

Posi el ratolí al punt desitjat per veure el nom de l'estació.

Feu clic per veure les observacions i els pronòstics meteorològics.

Per canviar el mapa: feu clic els botons verds amb una creu de color negre per apropar; al botó verd amb un guió per allunyar la imatge; o en les fletxes verdes per a mapes adjacents.


METAR-TAF: